Time;durP1;ratioP1;P1;durP2;ratioP2;P2;SDS_P1;SDS_P2;PMS_P1;PMS_P2;Temp;Humidity;BMP_temperature;BMP_pressure;BME280_temperature;BME280_humidity;BME280_pressure;Samples;Min_cycle;Max_cycle;Signal;HPM_P1;HPM_P2
2021/11/22 00:00:15;;;;;;;16.95;14.25;;;13.40;96.70;;;;;;4891442;29;20605;-76
2021/11/22 00:02:43;;;;;;;17.23;14.35;;;13.40;96.70;;;;;;4874024;29;20055;-77
2021/11/22 00:05:11;;;;;;;17.27;14.35;;;13.30;96.70;;;;;;4878160;29;20044;-76
2021/11/22 00:07:39;;;;;;;18.80;14.73;;;13.30;96.70;;;;;;4874704;29;20091;-76
2021/11/22 00:10:09;;;;;;;17.90;14.68;;;13.30;96.70;;;;;;4891706;29;20041;-77
2021/11/22 00:12:37;;;;;;;16.83;14.23;;;13.30;96.70;;;;;;4874346;29;20143;-78
2021/11/22 00:15:08;;;;;;;16.63;13.57;;;13.40;96.70;;;;;;4888002;29;20045;-77
2021/11/22 00:17:36;;;;;;;16.48;14.10;;;13.40;96.70;;;;;;4877575;29;20075;-76
2021/11/22 00:20:07;;;;;;;17.70;14.90;;;13.40;96.70;;;;;;4878834;29;20126;-77
2021/11/22 00:22:35;;;;;;;17.48;13.80;;;13.40;96.70;;;;;;4889038;29;20479;-77
2021/11/22 00:25:04;;;;;;;16.00;13.45;;;13.40;96.70;;;;;;4858222;29;20398;-76
2021/11/22 00:27:34;;;;;;;15.48;12.15;;;13.40;96.70;;;;;;4891614;29;20129;-77
2021/11/22 00:30:10;;;;;;;16.40;12.43;;;13.30;96.70;;;;;;4878169;29;20080;-77
2021/11/22 00:32:51;;;;;;;14.20;11.20;;;13.30;96.70;;;;;;4861221;29;20049;-77
2021/11/22 00:35:38;;;;;;;13.95;9.55;;;13.30;96.70;;;;;;4891756;29;20427;-77
2021/11/22 00:38:07;;;;;;;13.27;10.00;;;13.30;96.70;;;;;;4898376;29;20044;-76
2021/11/22 00:40:36;;;;;;;11.75;9.77;;;13.30;96.70;;;;;;4873910;29;20092;-76
2021/11/22 00:43:06;;;;;;;9.80;7.53;;;13.30;96.70;;;;;;4871420;29;20059;-77
2021/11/22 00:45:34;;;;;;;11.38;8.32;;;13.30;96.70;;;;;;4872036;29;20108;-77
2021/11/22 00:48:02;;;;;;;10.63;7.47;;;13.30;96.70;;;;;;4872567;29;20143;-77
2021/11/22 00:50:31;;;;;;;10.38;7.10;;;13.30;96.70;;;;;;4872028;29;20044;-77
2021/11/22 00:53:00;;;;;;;8.82;6.38;;;13.30;96.70;;;;;;4871053;29;20060;-77
2021/11/22 00:55:28;;;;;;;10.13;6.60;;;13.30;96.70;;;;;;4887691;29;20238;-77
2021/11/22 00:57:56;;;;;;;7.85;6.82;;;13.30;96.70;;;;;;4885882;29;20542;-77
2021/11/22 01:00:27;;;;;;;8.63;6.38;;;13.30;96.70;;;;;;4868925;29;20052;-77
2021/11/22 01:02:56;;;;;;;6.85;6.15;;;13.30;96.70;;;;;;4887426;29;20044;-77
2021/11/22 01:05:24;;;;;;;7.30;6.35;;;13.30;96.70;;;;;;4868392;29;20040;-77
2021/11/22 01:07:52;;;;;;;8.63;6.35;;;13.30;96.70;;;;;;4870193;29;20048;-77
2021/11/22 01:10:22;;;;;;;9.15;6.53;;;13.30;96.70;;;;;;4886790;29;20041;-77
2021/11/22 01:12:51;;;;;;;8.05;6.55;;;13.30;96.70;;;;;;4872235;29;20491;-77
2021/11/22 01:15:22;;;;;;;7.35;6.28;;;13.30;96.70;;;;;;4888464;29;20516;-77
2021/11/22 01:17:54;;;;;;;12.80;7.18;;;13.30;96.70;;;;;;4889641;29;20439;-77
2021/11/22 01:20:29;;;;;;;7.30;6.03;;;13.30;96.70;;;;;;4876614;29;20060;-77
2021/11/22 01:22:59;;;;;;;8.15;6.72;;;13.30;96.70;;;;;;4871358;29;20579;-77
2021/11/22 01:25:28;;;;;;;9.13;6.40;;;13.20;96.70;;;;;;4887560;29;20052;-77
2021/11/22 01:27:56;;;;;;;8.13;6.72;;;13.20;96.70;;;;;;4874479;29;20048;-77
2021/11/22 01:30:25;;;;;;;8.15;6.82;;;13.20;96.70;;;;;;4884967;29;20044;-77
2021/11/22 01:32:54;;;;;;;9.38;7.43;;;13.20;96.70;;;;;;4871994;29;20088;-77
2021/11/22 01:35:22;;;;;;;10.13;8.05;;;13.20;96.70;;;;;;4884072;29;20125;-77
2021/11/22 01:37:51;;;;;;;10.70;9.02;;;13.20;96.70;;;;;;4874361;29;20040;-77
2021/11/22 01:40:21;;;;;;;12.32;9.50;;;13.10;96.70;;;;;;4887281;29;20426;-77
2021/11/22 01:42:50;;;;;;;14.30;10.13;;;13.20;96.70;;;;;;4890252;29;20451;-77
2021/11/22 01:45:19;;;;;;;15.02;9.98;;;13.20;96.70;;;;;;4871572;29;20044;-77
2021/11/22 01:47:48;;;;;;;12.52;10.50;;;13.20;96.70;;;;;;4875970;29;20053;-78
2021/11/22 01:50:19;;;;;;;13.88;11.00;;;13.20;96.70;;;;;;4870557;29;20040;-76
2021/11/22 01:52:48;;;;;;;14.65;10.48;;;13.20;96.70;;;;;;4892102;29;20570;-77
2021/11/22 01:55:19;;;;;;;13.55;10.40;;;13.20;96.70;;;;;;4871373;29;20044;-77
2021/11/22 01:57:49;;;;;;;13.20;10.63;;;13.20;96.70;;;;;;4870302;29;20131;-77
2021/11/22 02:00:21;;;;;;;12.85;10.15;;;13.10;96.70;;;;;;4874009;29;20073;-76
2021/11/22 02:02:48;;;;;;;12.57;10.00;;;13.10;96.70;;;;;;4888932;29;20526;-76
2021/11/22 02:05:19;;;;;;;12.82;10.25;;;13.10;96.70;;;;;;4889147;29;20449;-76
2021/11/22 02:07:47;;;;;;;12.02;9.88;;;13.10;96.70;;;;;;4888872;29;20056;-76
2021/11/22 02:10:16;;;;;;;10.77;9.00;;;13.10;96.70;;;;;;4869376;29;20452;-76
2021/11/22 02:12:44;;;;;;;12.88;8.55;;;13.10;96.70;;;;;;4895293;29;20040;-76
2021/11/22 02:15:14;;;;;;;10.65;8.40;;;13.10;96.70;;;;;;4870564;29;20494;-76
2021/11/22 02:17:43;;;;;;;10.43;7.63;;;13.10;96.70;;;;;;4872317;29;20055;-76
2021/11/22 02:20:15;;;;;;;8.98;7.68;;;13.10;96.70;;;;;;4885224;29;20047;-76
2021/11/22 02:22:45;;;;;;;9.73;8.25;;;13.10;96.70;;;;;;4884296;29;20500;-75
2021/11/22 02:25:17;;;;;;;10.80;7.63;;;13.10;96.70;;;;;;4889984;29;20440;-76
2021/11/22 02:27:49;;;;;;;11.48;7.97;;;13.10;96.70;;;;;;4868944;29;20453;-76
2021/11/22 02:30:20;;;;;;;10.35;8.80;;;13.10;96.70;;;;;;4871185;29;20140;-76
2021/11/22 02:32:49;;;;;;;10.45;7.85;;;13.10;96.70;;;;;;4866374;29;20059;-76
2021/11/22 02:35:20;;;;;;;10.93;8.68;;;13.10;96.70;;;;;;4890557;29;20119;-76
2021/11/22 02:37:48;;;;;;;15.05;9.25;;;13.10;96.70;;;;;;4887811;29;20039;-76
2021/11/22 02:40:17;;;;;;;10.55;8.80;;;13.10;96.70;;;;;;4888572;29;20072;-77
2021/11/22 02:42:46;;;;;;;10.68;8.88;;;13.10;96.70;;;;;;4869081;29;20053;-76
2021/11/22 02:45:17;;;;;;;11.38;9.25;;;13.10;96.70;;;;;;4890214;29;20086;-76
2021/11/22 02:47:46;;;;;;;10.25;8.65;;;13.10;96.70;;;;;;4887761;29;20495;-76
2021/11/22 02:50:16;;;;;;;11.77;8.95;;;13.10;96.70;;;;;;4868105;29;20052;-76
2021/11/22 02:52:47;;;;;;;12.25;9.18;;;13.10;96.70;;;;;;4870576;29;20441;-75
2021/11/22 02:55:17;;;;;;;13.88;9.18;;;13.10;96.70;;;;;;4873826;29;20049;-76
2021/11/22 02:57:45;;;;;;;11.07;8.32;;;13.10;96.70;;;;;;4866990;29;20053;-75
2021/11/22 03:00:16;;;;;;;15.55;9.52;;;13.10;96.70;;;;;;4885458;29;20047;-75
2021/11/22 03:02:46;;;;;;;10.93;8.68;;;13.10;96.70;;;;;;4885039;29;20032;-76
2021/11/22 03:05:15;;;;;;;11.32;8.95;;;13.10;96.70;;;;;;4868453;29;20056;-76
2021/11/22 03:07:46;;;;;;;11.55;9.48;;;13.10;96.70;;;;;;4887532;29;20068;-76
2021/11/22 03:10:16;;;;;;;12.32;8.90;;;13.10;96.70;;;;;;4886380;29;20045;-76
2021/11/22 03:12:46;;;;;;;11.00;8.55;;;13.10;96.70;;;;;;4885727;29;20048;-76
2021/11/22 03:15:16;;;;;;;12.02;9.45;;;13.00;96.70;;;;;;4886204;29;20096;-76
2021/11/22 03:17:45;;;;;;;11.55;9.32;;;13.00;96.70;;;;;;4866530;29;20503;-76
2021/11/22 03:20:16;;;;;;;13.48;9.98;;;13.00;96.70;;;;;;4872733;29;20041;-76
2021/11/22 03:22:47;;;;;;;11.02;9.52;;;13.00;96.70;;;;;;4875301;29;20041;-76
2021/11/22 03:25:17;;;;;;;11.80;8.95;;;13.00;96.70;;;;;;4853259;29;20456;-76
2021/11/22 03:27:47;;;;;;;11.93;9.57;;;13.00;96.70;;;;;;4872046;29;20118;-76
2021/11/22 03:30:17;;;;;;;11.55;9.07;;;13.00;96.70;;;;;;4875293;29;20065;-76
2021/11/22 03:32:46;;;;;;;11.57;9.20;;;13.00;96.70;;;;;;4895537;29;20777;-76
2021/11/22 03:35:15;;;;;;;11.95;9.32;;;13.00;96.70;;;;;;4892029;29;20040;-76
2021/11/22 03:37:46;;;;;;;15.45;9.98;;;12.90;96.70;;;;;;4873796;29;20677;-76
2021/11/22 03:40:16;;;;;;;13.40;9.88;;;12.90;96.70;;;;;;4894500;29;20569;-77
2021/11/22 03:45:30;;;;;;;12.23;8.77;;;12.90;96.70;;;;;;4872696;29;20543;-77
2021/11/22 03:48:04;;;;;;;10.20;8.55;;;12.90;96.70;;;;;;4892293;29;20050;-77
2021/11/22 03:50:33;;;;;;;10.95;9.20;;;12.90;96.70;;;;;;4887508;29;20072;-77
2021/11/22 03:53:03;;;;;;;11.63;9.02;;;12.90;96.70;;;;;;4874466;29;20057;-77
2021/11/22 03:55:32;;;;;;;10.05;8.68;;;12.90;96.70;;;;;;4859157;29;20048;-76
2021/11/22 03:58:00;;;;;;;12.15;8.90;;;12.90;96.70;;;;;;4890508;29;20539;-77
2021/11/22 04:00:28;;;;;;;11.10;8.55;;;12.90;96.70;;;;;;4856776;29;20040;-77
2021/11/22 04:02:56;;;;;;;10.93;8.60;;;12.90;96.70;;;;;;4892114;29;20052;-77
2021/11/22 04:05:25;;;;;;;10.85;8.65;;;12.90;96.70;;;;;;4875121;29;20048;-77
2021/11/22 04:07:53;;;;;;;11.10;8.05;;;12.90;96.70;;;;;;4888858;29;20084;-77
2021/11/22 04:10:23;;;;;;;10.57;8.07;;;12.90;96.70;;;;;;4871140;29;20116;-76
2021/11/22 04:12:52;;;;;;;10.85;8.15;;;12.90;96.70;;;;;;4872369;29;20040;-76
2021/11/22 04:15:20;;;;;;;11.32;8.30;;;12.90;96.70;;;;;;4874901;29;20119;-77
2021/11/22 04:17:49;;;;;;;9.48;7.68;;;12.90;96.70;;;;;;4887656;29;20516;-76
2021/11/22 04:20:18;;;;;;;10.95;8.48;;;12.90;96.70;;;;;;4872635;29;20040;-77
2021/11/22 04:22:48;;;;;;;12.25;8.45;;;12.90;96.70;;;;;;4872207;29;20590;-77
2021/11/22 04:25:16;;;;;;;10.07;8.13;;;12.90;96.70;;;;;;4875113;29;20052;-76
2021/11/22 04:27:46;;;;;;;11.85;7.90;;;12.90;96.70;;;;;;4885351;29;20044;-76
2021/11/22 04:30:16;;;;;;;9.32;8.02;;;12.90;96.70;;;;;;4890294;29;20186;-76
2021/11/22 04:32:44;;;;;;;9.95;8.10;;;12.90;96.70;;;;;;4888644;29;20123;-76
2021/11/22 04:35:15;;;;;;;12.77;7.90;;;12.90;96.70;;;;;;4874442;29;20080;-76
2021/11/22 04:37:44;;;;;;;9.70;8.13;;;12.90;96.70;;;;;;4863533;29;20530;-77
2021/11/22 04:40:15;;;;;;;9.65;8.40;;;12.90;96.70;;;;;;4872805;29;20057;-76
2021/11/22 04:42:48;;;;;;;9.68;8.18;;;12.90;96.70;;;;;;4889535;29;20055;-76
2021/11/22 04:45:18;;;;;;;11.43;8.48;;;12.90;96.70;;;;;;4876091;29;20048;-76
2021/11/22 04:47:48;;;;;;;11.23;8.45;;;12.90;96.70;;;;;;4887776;29;20048;-76
2021/11/22 04:50:18;;;;;;;10.20;8.18;;;12.90;96.70;;;;;;4890539;29;20583;-77
2021/11/22 04:52:48;;;;;;;10.95;8.70;;;12.90;96.70;;;;;;4871749;29;21564;-77
2021/11/22 04:55:18;;;;;;;11.52;8.75;;;12.90;96.70;;;;;;4874104;29;20036;-78
2021/11/22 04:57:49;;;;;;;10.77;8.93;;;12.90;96.70;;;;;;4872984;29;20453;-77
2021/11/22 05:00:19;;;;;;;9.88;8.73;;;12.90;96.70;;;;;;4877743;29;20140;-78
2021/11/22 05:02:48;;;;;;;10.90;8.93;;;12.90;96.70;;;;;;4891519;29;20124;-77
2021/11/22 05:05:18;;;;;;;11.00;9.65;;;12.90;96.70;;;;;;4886825;29;20149;-77
2021/11/22 05:07:47;;;;;;;11.98;9.75;;;12.90;96.70;;;;;;4886467;29;20454;-75
2021/11/22 05:10:32;;;;;;;12.68;9.55;;;12.90;96.70;;;;;;4888207;29;20056;-75
2021/11/22 05:13:04;;;;;;;11.82;9.50;;;12.90;96.70;;;;;;4870900;29;20052;-75
2021/11/22 05:15:34;;;;;;;11.80;9.38;;;12.90;96.70;;;;;;4869334;29;20076;-76
2021/11/22 05:18:02;;;;;;;12.90;9.68;;;12.90;96.70;;;;;;4886173;29;20142;-75
2021/11/22 05:20:30;;;;;;;13.50;10.20;;;12.80;96.70;;;;;;4872949;29;20040;-75
2021/11/22 05:22:59;;;;;;;14.07;10.70;;;12.80;96.70;;;;;;4885834;29;20067;-75
2021/11/22 05:25:28;;;;;;;12.27;10.73;;;12.80;96.70;;;;;;4886487;29;20044;-77
2021/11/22 05:27:56;;;;;;;13.00;11.07;;;12.80;96.70;;;;;;4890620;29;20072;-76
2021/11/22 05:30:26;;;;;;;13.27;9.90;;;12.80;96.70;;;;;;4871835;29;20143;-76
2021/11/22 05:32:56;;;;;;;14.07;10.57;;;12.80;96.70;;;;;;4870996;29;20161;-76
2021/11/22 05:35:25;;;;;;;13.93;11.63;;;12.80;96.70;;;;;;4873826;29;20076;-76
2021/11/22 05:37:54;;;;;;;13.85;11.10;;;12.80;96.70;;;;;;4883719;29;20726;-76
2021/11/22 05:40:22;;;;;;;13.45;10.88;;;12.80;96.70;;;;;;4867882;29;20537;-77
2021/11/22 05:42:52;;;;;;;13.85;11.02;;;12.80;96.70;;;;;;4871210;29;21161;-76
2021/11/22 05:45:20;;;;;;;12.45;10.13;;;12.80;96.70;;;;;;4891996;29;20067;-76
2021/11/22 05:47:50;;;;;;;13.38;11.43;;;12.80;96.70;;;;;;4873579;29;20120;-76
2021/11/22 05:50:19;;;;;;;15.07;11.48;;;12.80;96.70;;;;;;4887847;29;20053;-76
2021/11/22 05:52:55;;;;;;;13.85;11.32;;;12.80;96.70;;;;;;4872888;29;20548;-77
2021/11/22 05:55:39;;;;;;;15.23;11.88;;;12.80;96.70;;;;;;4869875;29;20089;-76
2021/11/22 05:58:12;;;;;;;11.73;10.50;;;12.80;96.70;;;;;;4888992;29;20598;-75
2021/11/22 06:00:41;;;;;;;14.00;11.02;;;12.80;96.70;;;;;;4887409;29;20051;-74
2021/11/22 06:03:13;;;;;;;11.93;10.45;;;12.80;96.70;;;;;;4871574;29;20080;-75
2021/11/22 06:05:41;;;;;;;12.60;10.50;;;12.80;96.70;;;;;;4871855;29;20040;-74
2021/11/22 06:08:10;;;;;;;12.05;10.10;;;12.80;96.70;;;;;;4871334;29;20483;-76
2021/11/22 06:10:38;;;;;;;12.98;10.18;;;12.80;96.70;;;;;;4871441;29;20044;-76
2021/11/22 06:13:10;;;;;;;12.88;10.35;;;12.80;96.70;;;;;;4894952;29;20054;-75
2021/11/22 06:15:39;;;;;;;15.40;10.80;;;12.80;96.70;;;;;;4869787;29;20048;-76
2021/11/22 06:18:08;;;;;;;14.40;10.27;;;12.80;96.70;;;;;;4884866;29;20044;-74
2021/11/22 06:20:38;;;;;;;12.35;10.65;;;12.80;96.70;;;;;;4873464;29;20048;-75
2021/11/22 06:23:07;;;;;;;12.27;10.07;;;12.80;96.70;;;;;;4857345;29;20057;-75
2021/11/22 06:25:35;;;;;;;11.15;9.10;;;12.80;96.70;;;;;;4869995;29;20048;-75
2021/11/22 06:28:04;;;;;;;12.38;9.82;;;12.80;96.70;;;;;;4871771;29;20052;-75
2021/11/22 06:30:32;;;;;;;12.63;9.95;;;12.80;96.70;;;;;;4886769;29;20079;-75
2021/11/22 06:33:00;;;;;;;12.63;9.85;;;12.80;96.70;;;;;;4874548;29;20112;-75
2021/11/22 06:35:33;;;;;;;12.50;10.13;;;12.80;96.70;;;;;;4870840;29;20168;-75
2021/11/22 06:38:03;;;;;;;11.68;9.90;;;12.80;96.70;;;;;;4884069;29;20036;-75
2021/11/22 06:40:32;;;;;;;13.90;10.48;;;12.80;96.70;;;;;;4872021;29;20067;-75
2021/11/22 06:43:00;;;;;;;10.68;8.48;;;12.80;96.70;;;;;;4869789;29;20527;-75
2021/11/22 06:45:28;;;;;;;15.68;11.10;;;12.80;96.70;;;;;;4885728;29;20055;-75
2021/11/22 06:47:57;;;;;;;13.48;9.38;;;12.80;96.70;;;;;;4885426;29;20056;-76
2021/11/22 06:50:26;;;;;;;10.15;8.40;;;12.90;96.70;;;;;;4885185;29;20097;-76
2021/11/22 06:52:54;;;;;;;10.82;9.20;;;12.90;96.70;;;;;;4885641;29;20060;-76
2021/11/22 06:55:24;;;;;;;11.40;9.00;;;12.90;96.70;;;;;;4869644;29;20044;-76
2021/11/22 06:57:52;;;;;;;11.13;8.48;;;12.90;96.70;;;;;;4869509;29;20059;-76
2021/11/22 07:00:21;;;;;;;11.48;9.05;;;12.90;96.70;;;;;;4871191;29;20053;-76
2021/11/22 07:02:52;;;;;;;13.65;8.88;;;12.90;96.70;;;;;;4869630;29;20051;-75
2021/11/22 07:05:23;;;;;;;11.30;9.52;;;12.90;96.70;;;;;;4866665;29;20112;-75
2021/11/22 07:07:52;;;;;;;10.75;9.57;;;13.00;96.70;;;;;;4891628;29;20049;-76
2021/11/22 07:10:23;;;;;;;12.07;9.32;;;13.00;96.70;;;;;;4888266;29;20044;-76
2021/11/22 07:12:51;;;;;;;12.63;10.52;;;13.00;96.70;;;;;;4868966;29;20453;-76
2021/11/22 07:15:21;;;;;;;13.05;10.10;;;12.90;96.70;;;;;;4870723;29;20063;-76
2021/11/22 07:17:50;;;;;;;12.07;9.48;;;12.90;96.70;;;;;;4886032;29;20601;-76
2021/11/22 07:20:18;;;;;;;10.80;9.10;;;12.90;96.70;;;;;;4881699;29;20583;-76
2021/11/22 07:22:46;;;;;;;10.80;9.02;;;12.90;96.70;;;;;;4886112;29;20056;-76
2021/11/22 07:25:14;;;;;;;10.50;9.40;;;12.90;96.70;;;;;;4891195;29;20041;-76
2021/11/22 07:27:44;;;;;;;11.73;9.65;;;12.90;96.70;;;;;;4889851;29;20502;-76
2021/11/22 07:30:19;;;;;;;12.73;10.00;;;12.90;96.70;;;;;;4888490;29;21161;-76
2021/11/22 07:32:52;;;;;;;13.15;10.25;;;12.90;96.70;;;;;;4871557;29;20036;-76
2021/11/22 07:35:21;;;;;;;12.27;10.10;;;13.00;96.70;;;;;;4885742;29;20064;-76
2021/11/22 07:37:50;;;;;;;11.52;9.45;;;13.00;96.70;;;;;;4882442;29;20254;-76
2021/11/22 07:40:22;;;;;;;11.07;9.40;;;13.00;96.70;;;;;;4888413;29;20049;-76
2021/11/22 07:42:53;;;;;;;10.70;9.52;;;13.10;96.70;;;;;;4885219;29;20104;-76
2021/11/22 07:45:22;;;;;;;12.68;10.02;;;13.10;96.70;;;;;;4872401;29;20044;-76
2021/11/22 07:47:50;;;;;;;13.93;11.55;;;13.10;96.70;;;;;;4872866;29;20046;-76
2021/11/22 07:50:20;;;;;;;14.00;11.55;;;13.20;96.70;;;;;;4870280;29;20039;-75
2021/11/22 07:52:49;;;;;;;13.05;11.27;;;13.20;96.70;;;;;;4883754;29;20036;-75
2021/11/22 07:55:20;;;;;;;14.05;11.00;;;13.20;96.70;;;;;;4885793;29;20049;-75
2021/11/22 07:57:49;;;;;;;13.77;10.90;;;13.20;96.70;;;;;;4881697;29;20580;-76
2021/11/22 08:00:20;;;;;;;14.35;11.00;;;13.30;96.70;;;;;;4886288;29;20053;-74
2021/11/22 08:02:48;;;;;;;13.98;10.43;;;13.30;96.70;;;;;;4886659;29;20503;-73
2021/11/22 08:05:18;;;;;;;14.48;10.40;;;13.30;96.70;;;;;;4870497;29;20063;-73
2021/11/22 08:07:46;;;;;;;14.07;10.68;;;13.40;96.70;;;;;;4874224;29;20068;-73
2021/11/22 08:10:25;;;;;;;16.75;11.02;;;13.40;96.70;;;;;;4869685;29;20498;-73
2021/11/22 08:12:56;;;;;;;14.93;10.57;;;13.40;96.70;;;;;;4890784;29;20048;-76
2021/11/22 08:15:27;;;;;;;12.77;10.85;;;13.50;96.70;;;;;;4870556;29;20060;-75
2021/11/22 08:17:58;;;;;;;12.48;10.32;;;13.50;96.70;;;;;;4885976;29;20048;-75
2021/11/22 08:20:26;;;;;;;14.70;10.55;;;13.50;96.70;;;;;;4887506;29;20072;-74
2021/11/22 08:22:54;;;;;;;15.40;10.15;;;13.60;96.70;;;;;;4871764;29;20052;-74
2021/11/22 08:25:24;;;;;;;15.57;11.13;;;13.60;96.70;;;;;;4871934;29;20040;-74
2021/11/22 08:27:54;;;;;;;13.27;9.95;;;13.60;96.70;;;;;;4873050;29;20056;-74
2021/11/22 08:30:26;;;;;;;13.95;10.80;;;13.60;96.70;;;;;;4873135;29;20052;-74
2021/11/22 08:32:58;;;;;;;12.77;9.52;;;13.60;96.70;;;;;;4864606;29;20441;-75
2021/11/22 08:35:31;;;;;;;13.93;9.60;;;13.60;96.70;;;;;;4872273;29;20123;-75
2021/11/22 08:37:59;;;;;;;16.40;10.50;;;13.60;96.70;;;;;;4871671;29;20597;-76
2021/11/22 08:40:28;;;;;;;14.80;10.48;;;13.70;96.70;;;;;;4886280;29;20048;-75
2021/11/22 08:42:56;;;;;;;13.68;10.00;;;13.70;96.70;;;;;;4883558;29;20041;-75
2021/11/22 08:45:26;;;;;;;13.20;10.05;;;13.70;96.70;;;;;;4889208;29;20443;-76
2021/11/22 08:47:54;;;;;;;14.25;10.27;;;13.80;96.70;;;;;;4887512;29;20040;-75
2021/11/22 08:50:22;;;;;;;10.98;9.48;;;13.90;96.70;;;;;;4870500;29;20463;-74
2021/11/22 08:52:50;;;;;;;13.23;10.82;;;13.90;96.70;;;;;;4887762;29;20045;-74
2021/11/22 08:55:19;;;;;;;11.82;9.68;;;13.90;96.70;;;;;;4886664;29;20049;-75
2021/11/22 08:57:48;;;;;;;14.70;10.20;;;14.00;96.70;;;;;;4890447;29;20049;-75
2021/11/22 09:00:20;;;;;;;12.52;10.10;;;14.00;96.70;;;;;;4873185;29;20060;-75
2021/11/22 09:02:49;;;;;;;14.20;10.07;;;14.00;96.70;;;;;;4883224;29;20124;-75
2021/11/22 09:05:18;;;;;;;13.05;9.63;;;14.10;96.70;;;;;;4886375;29;20040;-75
2021/11/22 09:07:46;;;;;;;12.63;9.48;;;14.20;96.70;;;;;;4886233;29;20893;-76
2021/11/22 09:10:14;;;;;;;11.88;8.82;;;14.20;96.70;;;;;;4870985;29;20127;-76
2021/11/22 09:12:42;;;;;;;9.70;8.60;;;14.30;96.70;;;;;;4887870;29;20457;-75
2021/11/22 09:15:10;;;;;;;11.88;8.15;;;14.30;96.70;;;;;;4857333;29;20586;-76
2021/11/22 09:17:38;;;;;;;10.07;8.07;;;14.30;96.70;;;;;;4871983;29;20056;-76
2021/11/22 09:20:09;;;;;;;9.00;8.00;;;14.40;96.70;;;;;;4885392;29;20827;-76
2021/11/22 09:22:38;;;;;;;9.50;8.02;;;14.50;96.70;;;;;;4871823;29;20044;-75
2021/11/22 09:25:12;;;;;;;10.13;8.15;;;14.60;96.70;;;;;;4893330;29;20036;-75
2021/11/22 09:27:40;;;;;;;6.95;6.20;;;14.70;96.70;;;;;;4888796;29;20143;-75
2021/11/22 09:30:10;;;;;;;7.88;6.70;;;14.80;96.70;;;;;;4868712;29;20518;-75
2021/11/22 09:32:38;;;;;;;8.20;6.68;;;15.00;96.70;;;;;;4871137;29;20131;-75
2021/11/22 09:35:08;;;;;;;6.40;5.65;;;15.00;96.70;;;;;;4856054;29;20056;-75
2021/11/22 09:37:37;;;;;;;6.03;5.03;;;15.10;96.70;;;;;;4872762;29;20422;-75
2021/11/22 09:40:08;;;;;;;6.30;5.30;;;15.10;96.70;;;;;;4870991;29;20094;-75
2021/11/22 09:42:37;;;;;;;6.03;5.15;;;15.20;96.70;;;;;;4871662;29;20044;-75
2021/11/22 09:45:07;;;;;;;6.47;5.50;;;15.30;96.70;;;;;;4871084;29;20052;-75
2021/11/22 09:47:35;;;;;;;6.80;5.70;;;15.50;96.70;;;;;;4885979;29;20269;-75
2021/11/22 09:50:04;;;;;;;6.97;5.28;;;15.60;96.70;;;;;;4870130;29;20484;-76
2021/11/22 09:52:35;;;;;;;6.03;5.43;;;15.70;96.70;;;;;;4883224;29;20060;-76
2021/11/22 09:55:04;;;;;;;6.22;5.25;;;15.80;96.70;;;;;;4887465;29;20333;-77
2021/11/22 09:57:33;;;;;;;6.13;4.63;;;15.80;96.70;;;;;;4870749;29;20044;-77
2021/11/22 10:00:05;;;;;;;5.40;4.70;;;15.90;96.70;;;;;;4872483;29;20052;-76
2021/11/22 10:02:51;;;;;;;5.47;4.57;;;15.90;96.70;;;;;;4887778;29;20064;-76
2021/11/22 10:05:23;;;;;;;5.18;4.68;;;15.90;96.70;;;;;;4873287;29;20441;-76
2021/11/22 10:08:01;;;;;;;5.28;4.60;;;15.80;96.70;;;;;;4869141;29;20049;-77
2021/11/22 10:10:35;;;;;;;5.95;4.40;;;15.90;96.70;;;;;;4885340;29;20041;-76
2021/11/22 10:13:22;;;;;;;4.68;3.95;;;16.00;96.70;;;;;;4884666;29;20051;-75
2021/11/22 10:15:53;;;;;;;6.20;4.90;;;16.00;96.70;;;;;;4866863;29;20388;-75
2021/11/22 10:18:23;;;;;;;5.45;4.20;;;16.10;96.70;;;;;;4871728;29;20045;-75
2021/11/22 10:20:52;;;;;;;6.28;5.22;;;16.10;96.70;;;;;;4869535;29;20063;-76
2021/11/22 10:23:25;;;;;;;5.88;4.78;;;16.20;96.70;;;;;;4874727;29;20368;-76
2021/11/22 10:25:54;;;;;;;7.07;4.88;;;16.20;96.70;;;;;;4863145;29;20044;-76
2021/11/22 10:28:24;;;;;;;5.40;4.75;;;16.20;96.70;;;;;;4871972;29;20045;-74
2021/11/22 10:30:53;;;;;;;5.43;4.43;;;16.20;96.70;;;;;;4888488;29;20050;-74
2021/11/22 10:33:23;;;;;;;8.70;4.55;;;16.10;96.70;;;;;;4886390;29;20345;-74
2021/11/22 10:35:54;;;;;;;8.80;4.85;;;16.20;96.70;;;;;;4871542;29;20496;-74
2021/11/22 10:38:25;;;;;;;6.22;4.40;;;16.30;96.70;;;;;;4886330;29;20488;-74
2021/11/22 10:40:56;;;;;;;6.47;4.40;;;16.30;96.70;;;;;;4872273;29;20075;-73
2021/11/22 10:43:32;;;;;;;7.78;4.32;;;16.40;96.70;;;;;;4866665;29;20515;-74
2021/11/22 10:46:00;;;;;;;7.73;4.27;;;16.40;96.70;;;;;;4864473;29;20056;-74
2021/11/22 10:48:31;;;;;;;5.97;4.93;;;16.50;96.70;;;;;;4874002;29;20071;-74
2021/11/22 10:51:13;;;;;;;5.70;4.30;;;16.50;96.70;;;;;;4887572;29;20040;-74
2021/11/22 10:53:45;;;;;;;6.55;5.28;;;16.60;96.70;;;;;;4885211;29;20052;-74
2021/11/22 10:56:15;;;;;;;5.00;4.20;;;16.60;96.70;;;;;;4871452;29;20052;-74
2021/11/22 10:58:48;;;;;;;4.00;3.45;;;16.70;96.70;;;;;;4873639;29;20481;-74
2021/11/22 11:01:29;;;;;;;5.85;4.25;;;16.70;96.70;;;;;;4870783;29;20052;-74
2021/11/22 11:04:08;;;;;;;6.72;4.25;;;16.90;96.70;;;;;;4890172;29;20036;-77
2021/11/22 11:06:39;;;;;;;5.10;4.13;;;17.00;96.70;;;;;;4887131;29;20058;-77
2021/11/22 11:09:13;;;;;;;4.75;4.07;;;17.00;96.70;;;;;;4865524;29;20101;-76
2021/11/22 11:11:43;;;;;;;4.30;3.90;;;17.20;96.70;;;;;;4868997;29;20103;-76
2021/11/22 11:14:14;;;;;;;7.88;5.63;;;17.30;96.70;;;;;;4887257;29;20139;-77
2021/11/22 11:16:44;;;;;;;7.07;4.82;;;17.40;96.70;;;;;;4884101;29;20132;-76
2021/11/22 11:19:14;;;;;;;5.10;4.22;;;17.40;96.70;;;;;;4870811;29;20395;-76
2021/11/22 11:21:45;;;;;;;5.10;4.00;;;17.40;96.70;;;;;;4884312;29;20049;-76
2021/11/22 11:24:16;;;;;;;6.38;4.10;;;17.40;96.70;;;;;;4887070;29;20055;-76
2021/11/22 11:26:48;;;;;;;4.80;3.63;;;17.40;96.70;;;;;;4868460;29;20479;-75
2021/11/22 11:29:17;;;;;;;4.65;3.85;;;17.60;96.70;;;;;;4886522;29;20044;-76
2021/11/22 11:31:46;;;;;;;4.55;3.92;;;17.60;96.70;;;;;;4867739;29;20097;-77
2021/11/22 11:34:15;;;;;;;4.68;4.10;;;17.40;96.70;;;;;;4886487;29;20071;-76
2021/11/22 11:37:02;;;;;;;6.55;3.97;;;17.40;96.70;;;;;;4886650;29;20041;-76
2021/11/22 11:40:15;;;;;;;4.80;3.85;;;17.30;96.70;;;;;;4867276;29;20040;-76
2021/11/22 11:43:24;;;;;;;7.15;3.97;;;17.20;96.70;;;;;;4887431;29;20360;-76
2021/11/22 11:45:57;;;;;;;4.43;3.40;;;17.20;96.70;;;;;;4858112;29;20057;-76
2021/11/22 11:48:59;;;;;;;5.80;3.60;;;17.20;96.70;;;;;;4892280;29;20177;-76
2021/11/22 11:51:35;;;;;;;6.75;3.53;;;17.30;96.70;;;;;;4886873;29;20084;-76
2021/11/22 11:54:18;;;;;;;5.20;3.83;;;17.30;96.70;;;;;;4874454;29;20511;-75
2021/11/22 11:56:55;;;;;;;5.63;3.67;;;17.40;96.70;;;;;;4890828;29;20060;-76
2021/11/22 11:59:33;;;;;;;4.47;3.30;;;17.50;96.70;;;;;;4890757;29;20052;-76
2021/11/22 12:02:06;;;;;;;4.28;3.65;;;17.60;96.70;;;;;;4872914;29;20049;-76
2021/11/22 12:05:00;;;;;;;3.85;2.85;;;17.90;96.70;;;;;;4890671;29;20071;-76
2021/11/22 12:07:35;;;;;;;3.42;2.85;;;17.90;96.70;;;;;;4889283;29;20040;-76
2021/11/22 12:10:08;;;;;;;3.47;2.92;;;17.80;96.70;;;;;;4885326;29;20155;-76
2021/11/22 12:12:39;;;;;;;4.15;3.03;;;17.70;96.70;;;;;;4872333;29;20060;-76
2021/11/22 12:15:15;;;;;;;5.65;2.83;;;17.80;96.70;;;;;;4872091;29;20159;-75
2021/11/22 12:18:05;;;;;;;6.38;2.92;;;17.90;96.70;;;;;;4890250;29;20511;-75
2021/11/22 12:20:42;;;;;;;5.43;3.10;;;18.00;96.70;;;;;;4873506;29;20050;-76
2021/11/22 12:23:12;;;;;;;4.72;3.30;;;18.20;96.70;;;;;;4873493;29;20059;-76
2021/11/22 12:25:43;;;;;;;4.15;2.92;;;18.30;96.70;;;;;;4883499;29;20555;-76
2021/11/22 12:28:35;;;;;;;4.30;3.15;;;18.30;96.70;;;;;;4890549;29;20403;-76
2021/11/22 12:31:05;;;;;;;5.13;3.13;;;18.20;96.70;;;;;;4893202;29;20051;-76
2021/11/22 12:33:38;;;;;;;4.30;2.70;;;18.00;96.70;;;;;;4875642;29;20048;-76
2021/11/22 12:36:44;;;;;;;3.90;3.28;;;17.90;96.70;;;;;;4873941;29;20047;-76
2021/11/22 12:39:21;;;;;;;3.58;3.20;;;17.80;96.70;;;;;;4856827;29;20131;-76
2021/11/22 12:41:52;;;;;;;10.15;8.02;;;17.70;96.70;;;;;;4870549;29;20049;-76
2021/11/22 12:44:23;;;;;;;5.78;3.95;;;17.60;96.70;;;;;;4853423;29;20551;-76
2021/11/22 12:46:55;;;;;;;3.83;3.25;;;17.60;96.70;;;;;;4851484;29;20908;-76
2021/11/22 12:49:27;;;;;;;4.40;3.28;;;17.70;96.70;;;;;;4851895;29;20056;-76
2021/11/22 12:52:09;;;;;;;4.45;3.80;;;17.70;96.70;;;;;;4876381;29;20431;-76
2021/11/22 12:54:57;;;;;;;4.28;3.70;;;17.70;96.70;;;;;;4873034;29;20041;-76
2021/11/22 12:57:28;;;;;;;4.20;3.67;;;17.80;96.70;;;;;;4869586;29;20059;-77
2021/11/22 13:00:33;;;;;;;5.82;3.30;;;17.90;96.70;;;;;;4871561;29;20049;-77